sensor_id;sensor_type;location;lat;lon;timestamp;temperature;humidity
19728;DHT22;10015;52.530;13.390;2023-06-24T00:01:01;20.70;99.90
19728;DHT22;10015;52.530;13.390;2023-06-24T00:03:27;20.70;99.90
19728;DHT22;10015;52.530;13.390;2023-06-24T00:05:53;20.70;99.90
19728;DHT22;10015;52.530;13.390;2023-06-24T00:08:22;20.80;99.90
19728;DHT22;10015;52.530;13.390;2023-06-24T00:10:48;20.80;99.90
19728;DHT22;10015;52.530;13.390;2023-06-24T00:13:15;20.70;99.90
19728;DHT22;10015;52.530;13.390;2023-06-24T00:15:41;20.80;99.90
19728;DHT22;10015;52.530;13.390;2023-06-24T00:18:11;20.70;99.90
19728;DHT22;10015;52.530;13.390;2023-06-24T00:20:38;20.70;99.90
19728;DHT22;10015;52.530;13.390;2023-06-24T00:23:06;20.70;99.90
19728;DHT22;10015;52.530;13.390;2023-06-24T00:25:32;20.70;99.90
19728;DHT22;10015;52.530;13.390;2023-06-24T00:27:58;20.70;99.90
19728;DHT22;10015;52.530;13.390;2023-06-24T00:30:25;20.70;99.90
19728;DHT22;10015;52.530;13.390;2023-06-24T00:32:51;20.70;99.90
19728;DHT22;10015;52.530;13.390;2023-06-24T00:35:18;20.60;99.90
19728;DHT22;10015;52.530;13.390;2023-06-24T00:37:44;20.60;99.90
19728;DHT22;10015;52.530;13.390;2023-06-24T00:40:11;20.60;99.90
19728;DHT22;10015;52.530;13.390;2023-06-24T00:42:44;20.60;99.90
19728;DHT22;10015;52.530;13.390;2023-06-24T00:45:11;20.60;99.90
19728;DHT22;10015;52.530;13.390;2023-06-24T00:47:38;20.60;99.90
19728;DHT22;10015;52.530;13.390;2023-06-24T00:50:06;20.60;99.90
19728;DHT22;10015;52.530;13.390;2023-06-24T00:52:32;20.50;99.90
19728;DHT22;10015;52.530;13.390;2023-06-24T00:54:59;20.60;99.90
19728;DHT22;10015;52.530;13.390;2023-06-24T00:57:27;20.60;99.90
19728;DHT22;10015;52.530;13.390;2023-06-24T00:59:55;20.60;99.90
19728;DHT22;10015;52.530;13.390;2023-06-24T01:02:22;20.60;99.90
19728;DHT22;10015;52.530;13.390;2023-06-24T01:04:54;20.50;99.90
19728;DHT22;10015;52.530;13.390;2023-06-24T01:07:20;20.50;99.90
19728;DHT22;10015;52.530;13.390;2023-06-24T01:09:46;20.50;99.90
19728;DHT22;10015;52.530;13.390;2023-06-24T01:12:12;20.40;99.90
19728;DHT22;10015;52.530;13.390;2023-06-24T01:14:38;20.40;99.90
19728;DHT22;10015;52.530;13.390;2023-06-24T01:17:11;20.50;99.90
19728;DHT22;10015;52.530;13.390;2023-06-24T01:33:46;20.50;99.90
19728;DHT22;10015;52.530;13.390;2023-06-24T01:36:15;20.40;99.90
19728;DHT22;10015;52.530;13.390;2023-06-24T01:38:58;20.40;99.90
19728;DHT22;10015;52.530;13.390;2023-06-24T01:41:32;20.50;99.90
19728;DHT22;10015;52.530;13.390;2023-06-24T01:44:01;20.50;99.90
19728;DHT22;10015;52.530;13.390;2023-06-24T01:46:29;20.50;99.90
19728;DHT22;10015;52.530;13.390;2023-06-24T01:49:01;20.50;99.90
19728;DHT22;10015;52.530;13.390;2023-06-24T01:51:31;20.60;99.90
19728;DHT22;10015;52.530;13.390;2023-06-24T01:54:04;20.60;99.90
19728;DHT22;10015;52.530;13.390;2023-06-24T01:56:33;20.60;99.90
19728;DHT22;10015;52.530;13.390;2023-06-24T01:59:02;20.60;99.90
19728;DHT22;10015;52.530;13.390;2023-06-24T02:01:32;20.50;99.90
19728;DHT22;10015;52.530;13.390;2023-06-24T02:04:00;20.40;99.90
19728;DHT22;10015;52.530;13.390;2023-06-24T02:06:28;20.40;99.90
19728;DHT22;10015;52.530;13.390;2023-06-24T02:08:58;20.40;99.90
19728;DHT22;10015;52.530;13.390;2023-06-24T02:11:26;20.30;99.90
19728;DHT22;10015;52.530;13.390;2023-06-24T02:13:55;20.30;99.90
19728;DHT22;10015;52.530;13.390;2023-06-24T02:16:22;20.30;99.90
19728;DHT22;10015;52.530;13.390;2023-06-24T02:18:49;20.20;99.90
19728;DHT22;10015;52.530;13.390;2023-06-24T02:21:17;20.20;99.90
19728;DHT22;10015;52.530;13.390;2023-06-24T02:23:46;20.20;99.90
19728;DHT22;10015;52.530;13.390;2023-06-24T02:26:13;20.10;99.90
19728;DHT22;10015;52.530;13.390;2023-06-24T02:28:40;20.10;99.90
19728;DHT22;10015;52.530;13.390;2023-06-24T02:31:08;20.00;99.90
19728;DHT22;10015;52.530;13.390;2023-06-24T02:33:35;19.90;99.90
19728;DHT22;10015;52.530;13.390;2023-06-24T02:36:01;19.90;99.90
19728;DHT22;10015;52.530;13.390;2023-06-24T02:38:28;19.90;99.90
19728;DHT22;10015;52.530;13.390;2023-06-24T02:40:54;19.90;99.90
19728;DHT22;10015;52.530;13.390;2023-06-24T02:43:20;19.80;99.90
19728;DHT22;10015;52.530;13.390;2023-06-24T02:45:47;19.70;99.90
19728;DHT22;10015;52.530;13.390;2023-06-24T02:48:14;19.70;99.90
19728;DHT22;10015;52.530;13.390;2023-06-24T02:50:41;19.70;99.90
19728;DHT22;10015;52.530;13.390;2023-06-24T02:53:14;19.70;99.90
19728;DHT22;10015;52.530;13.390;2023-06-24T02:55:41;19.70;99.90
19728;DHT22;10015;52.530;13.390;2023-06-24T02:58:08;19.70;99.90
19728;DHT22;10015;52.530;13.390;2023-06-24T03:00:51;19.70;99.90
19728;DHT22;10015;52.530;13.390;2023-06-24T03:03:37;19.70;99.90
19728;DHT22;10015;52.530;13.390;2023-06-24T03:06:10;19.60;99.90
19728;DHT22;10015;52.530;13.390;2023-06-24T03:08:39;19.60;99.90
19728;DHT22;10015;52.530;13.390;2023-06-24T03:11:05;19.50;99.90
19728;DHT22;10015;52.530;13.390;2023-06-24T03:13:33;19.60;99.90
19728;DHT22;10015;52.530;13.390;2023-06-24T03:16:11;19.60;99.90
19728;DHT22;10015;52.530;13.390;2023-06-24T03:18:44;19.60;99.90
19728;DHT22;10015;52.530;13.390;2023-06-24T03:21:10;19.70;99.90
19728;DHT22;10015;52.530;13.390;2023-06-24T03:23:37;19.70;99.90
19728;DHT22;10015;52.530;13.390;2023-06-24T03:26:06;19.70;99.90
19728;DHT22;10015;52.530;13.390;2023-06-24T03:28:33;19.80;99.90
19728;DHT22;10015;52.530;13.390;2023-06-24T03:31:08;19.80;99.90
19728;DHT22;10015;52.530;13.390;2023-06-24T03:33:34;19.80;99.90
19728;DHT22;10015;52.530;13.390;2023-06-24T03:36:00;19.70;99.90
19728;DHT22;10015;52.530;13.390;2023-06-24T03:38:30;19.70;99.90
19728;DHT22;10015;52.530;13.390;2023-06-24T03:40:57;19.60;99.90
19728;DHT22;10015;52.530;13.390;2023-06-24T03:43:23;19.70;99.90
19728;DHT22;10015;52.530;13.390;2023-06-24T03:45:49;19.70;99.90
19728;DHT22;10015;52.530;13.390;2023-06-24T03:48:15;19.70;99.90
19728;DHT22;10015;52.530;13.390;2023-06-24T03:50:41;19.80;99.90
19728;DHT22;10015;52.530;13.390;2023-06-24T03:53:07;19.70;99.90
19728;DHT22;10015;52.530;13.390;2023-06-24T03:55:33;19.70;99.90
19728;DHT22;10015;52.530;13.390;2023-06-24T03:57:59;19.60;99.90
19728;DHT22;10015;52.530;13.390;2023-06-24T04:00:26;19.60;99.90
19728;DHT22;10015;52.530;13.390;2023-06-24T04:02:52;19.60;99.90
19728;DHT22;10015;52.530;13.390;2023-06-24T04:05:20;19.60;99.90
19728;DHT22;10015;52.530;13.390;2023-06-24T04:07:47;19.70;99.90
19728;DHT22;10015;52.530;13.390;2023-06-24T04:10:13;19.70;99.90
19728;DHT22;10015;52.530;13.390;2023-06-24T04:12:39;19.60;99.90
19728;DHT22;10015;52.530;13.390;2023-06-24T04:15:06;19.60;99.90
19728;DHT22;10015;52.530;13.390;2023-06-24T04:17:33;19.70;99.90
19728;DHT22;10015;52.530;13.390;2023-06-24T04:19:59;19.70;99.90
19728;DHT22;10015;52.530;13.390;2023-06-24T04:22:26;19.60;99.90
19728;DHT22;10015;52.530;13.390;2023-06-24T04:24:56;19.60;99.90
19728;DHT22;10015;52.530;13.390;2023-06-24T04:27:23;19.60;99.90
19728;DHT22;10015;52.530;13.390;2023-06-24T04:29:49;19.60;99.90
19728;DHT22;10015;52.530;13.390;2023-06-24T04:32:15;19.60;99.90
19728;DHT22;10015;52.530;13.390;2023-06-24T04:34:41;19.60;99.90
19728;DHT22;10015;52.530;13.390;2023-06-24T04:37:07;19.70;99.90
19728;DHT22;10015;52.530;13.390;2023-06-24T04:39:33;19.80;99.90
19728;DHT22;10015;52.530;13.390;2023-06-24T04:41:58;19.70;99.90
19728;DHT22;10015;52.530;13.390;2023-06-24T04:44:25;19.80;99.90
19728;DHT22;10015;52.530;13.390;2023-06-24T04:46:51;19.80;99.90
19728;DHT22;10015;52.530;13.390;2023-06-24T04:49:18;19.80;99.90
19728;DHT22;10015;52.530;13.390;2023-06-24T04:51:44;19.80;99.90
19728;DHT22;10015;52.530;13.390;2023-06-24T04:54:10;19.80;99.90
19728;DHT22;10015;52.530;13.390;2023-06-24T04:56:39;19.90;99.90
19728;DHT22;10015;52.530;13.390;2023-06-24T04:59:04;19.90;99.90
19728;DHT22;10015;52.530;13.390;2023-06-24T05:01:30;20.00;99.90
19728;DHT22;10015;52.530;13.390;2023-06-24T05:03:56;20.10;99.90
19728;DHT22;10015;52.530;13.390;2023-06-24T05:06:22;20.20;99.90
19728;DHT22;10015;52.530;13.390;2023-06-24T05:08:48;20.20;99.90
19728;DHT22;10015;52.530;13.390;2023-06-24T05:11:14;20.20;99.90
19728;DHT22;10015;52.530;13.390;2023-06-24T05:13:40;20.20;99.90
19728;DHT22;10015;52.530;13.390;2023-06-24T05:16:06;20.30;99.90
19728;DHT22;10015;52.530;13.390;2023-06-24T05:18:32;20.30;99.90
19728;DHT22;10015;52.530;13.390;2023-06-24T05:20:58;20.40;99.90
19728;DHT22;10015;52.530;13.390;2023-06-24T05:23:23;20.50;99.90
19728;DHT22;10015;52.530;13.390;2023-06-24T05:25:49;20.50;99.90
19728;DHT22;10015;52.530;13.390;2023-06-24T05:28:15;20.60;99.90
19728;DHT22;10015;52.530;13.390;2023-06-24T05:30:41;20.60;99.90
19728;DHT22;10015;52.530;13.390;2023-06-24T05:33:07;20.70;99.90
19728;DHT22;10015;52.530;13.390;2023-06-24T05:35:33;20.90;99.90
19728;DHT22;10015;52.530;13.390;2023-06-24T05:37:59;21.00;99.90
19728;DHT22;10015;52.530;13.390;2023-06-24T05:40:25;21.10;99.90
19728;DHT22;10015;52.530;13.390;2023-06-24T05:42:51;21.10;99.90
19728;DHT22;10015;52.530;13.390;2023-06-24T05:45:17;21.20;99.90
19728;DHT22;10015;52.530;13.390;2023-06-24T05:47:43;21.20;99.90
19728;DHT22;10015;52.530;13.390;2023-06-24T05:50:09;21.20;99.90
19728;DHT22;10015;52.530;13.390;2023-06-24T05:52:35;21.30;99.90
19728;DHT22;10015;52.530;13.390;2023-06-24T05:55:01;21.40;99.90
19728;DHT22;10015;52.530;13.390;2023-06-24T05:57:27;21.40;99.90
19728;DHT22;10015;52.530;13.390;2023-06-24T05:59:53;21.40;99.90
19728;DHT22;10015;52.530;13.390;2023-06-24T06:02:19;21.60;99.90
19728;DHT22;10015;52.530;13.390;2023-06-24T06:04:45;21.70;99.90
19728;DHT22;10015;52.530;13.390;2023-06-24T06:07:11;21.90;99.90
19728;DHT22;10015;52.530;13.390;2023-06-24T06:09:37;22.00;99.90
19728;DHT22;10015;52.530;13.390;2023-06-24T06:12:03;22.10;99.90
19728;DHT22;10015;52.530;13.390;2023-06-24T06:14:29;22.20;99.90
19728;DHT22;10015;52.530;13.390;2023-06-24T06:16:55;22.40;99.90
19728;DHT22;10015;52.530;13.390;2023-06-24T06:19:21;22.50;99.90
19728;DHT22;10015;52.530;13.390;2023-06-24T06:21:47;22.70;99.90
19728;DHT22;10015;52.530;13.390;2023-06-24T06:24:14;22.70;99.90
19728;DHT22;10015;52.530;13.390;2023-06-24T06:26:44;22.80;99.90
19728;DHT22;10015;52.530;13.390;2023-06-24T06:29:11;22.90;99.90
19728;DHT22;10015;52.530;13.390;2023-06-24T06:31:37;23.10;99.90
19728;DHT22;10015;52.530;13.390;2023-06-24T06:34:03;23.20;99.90
19728;DHT22;10015;52.530;13.390;2023-06-24T06:36:29;23.30;99.90
19728;DHT22;10015;52.530;13.390;2023-06-24T06:38:55;23.50;99.90
19728;DHT22;10015;52.530;13.390;2023-06-24T06:41:21;23.60;99.90
19728;DHT22;10015;52.530;13.390;2023-06-24T06:43:56;23.60;99.90
19728;DHT22;10015;52.530;13.390;2023-06-24T06:46:22;23.80;99.90
19728;DHT22;10015;52.530;13.390;2023-06-24T06:48:48;23.90;99.90
19728;DHT22;10015;52.530;13.390;2023-06-24T06:51:14;23.80;99.90
19728;DHT22;10015;52.530;13.390;2023-06-24T06:53:39;23.80;99.90
19728;DHT22;10015;52.530;13.390;2023-06-24T06:56:05;23.70;99.90
19728;DHT22;10015;52.530;13.390;2023-06-24T06:58:31;23.70;99.90
19728;DHT22;10015;52.530;13.390;2023-06-24T07:00:57;23.70;99.90
19728;DHT22;10015;52.530;13.390;2023-06-24T07:03:27;23.90;99.90
19728;DHT22;10015;52.530;13.390;2023-06-24T07:05:53;24.00;99.90
19728;DHT22;10015;52.530;13.390;2023-06-24T07:08:19;24.20;99.90
19728;DHT22;10015;52.530;13.390;2023-06-24T07:10:45;24.30;99.90
19728;DHT22;10015;52.530;13.390;2023-06-24T07:13:11;24.40;99.90
19728;DHT22;10015;52.530;13.390;2023-06-24T07:15:37;24.50;99.90
19728;DHT22;10015;52.530;13.390;2023-06-24T07:18:03;24.70;99.90
19728;DHT22;10015;52.530;13.390;2023-06-24T07:20:29;24.70;99.90
19728;DHT22;10015;52.530;13.390;2023-06-24T07:22:55;24.90;99.90
19728;DHT22;10015;52.530;13.390;2023-06-24T07:25:21;25.10;99.90
19728;DHT22;10015;52.530;13.390;2023-06-24T07:27:47;25.10;99.90
19728;DHT22;10015;52.530;13.390;2023-06-24T07:30:13;25.20;99.90
19728;DHT22;10015;52.530;13.390;2023-06-24T07:32:38;25.30;99.90
19728;DHT22;10015;52.530;13.390;2023-06-24T07:35:05;25.40;99.90
19728;DHT22;10015;52.530;13.390;2023-06-24T07:37:31;25.50;99.90
19728;DHT22;10015;52.530;13.390;2023-06-24T07:39:57;25.50;99.90
19728;DHT22;10015;52.530;13.390;2023-06-24T07:42:23;25.60;99.90
19728;DHT22;10015;52.530;13.390;2023-06-24T07:44:49;25.30;99.90
19728;DHT22;10015;52.530;13.390;2023-06-24T07:47:17;25.20;99.90
19728;DHT22;10015;52.530;13.390;2023-06-24T07:49:43;25.10;99.90
19728;DHT22;10015;52.530;13.390;2023-06-24T07:52:09;25.20;99.90
19728;DHT22;10015;52.530;13.390;2023-06-24T07:54:35;25.40;99.90
19728;DHT22;10015;52.530;13.390;2023-06-24T07:57:01;25.50;99.90
19728;DHT22;10015;52.530;13.390;2023-06-24T07:59:27;25.30;99.90
19728;DHT22;10015;52.530;13.390;2023-06-24T08:01:53;25.20;99.90
19728;DHT22;10015;52.530;13.390;2023-06-24T08:04:19;25.30;99.90
19728;DHT22;10015;52.530;13.390;2023-06-24T08:06:45;25.30;99.90
19728;DHT22;10015;52.530;13.390;2023-06-24T08:09:11;25.20;99.90
19728;DHT22;10015;52.530;13.390;2023-06-24T08:11:37;25.20;99.90
19728;DHT22;10015;52.530;13.390;2023-06-24T08:14:03;25.40;99.90
19728;DHT22;10015;52.530;13.390;2023-06-24T08:16:29;25.60;99.90
19728;DHT22;10015;52.530;13.390;2023-06-24T08:18:55;25.80;99.90
19728;DHT22;10015;52.530;13.390;2023-06-24T08:21:21;25.90;99.90
19728;DHT22;10015;52.530;13.390;2023-06-24T08:23:47;25.70;99.90
19728;DHT22;10015;52.530;13.390;2023-06-24T08:26:16;25.70;99.90
19728;DHT22;10015;52.530;13.390;2023-06-24T08:28:42;25.90;99.90
19728;DHT22;10015;52.530;13.390;2023-06-24T08:31:08;26.00;99.90
19728;DHT22;10015;52.530;13.390;2023-06-24T08:33:33;25.90;99.90
19728;DHT22;10015;52.530;13.390;2023-06-24T08:35:59;25.80;99.90
19728;DHT22;10015;52.530;13.390;2023-06-24T08:38:25;25.80;99.90
19728;DHT22;10015;52.530;13.390;2023-06-24T08:40:52;25.70;99.90
19728;DHT22;10015;52.530;13.390;2023-06-24T08:43:18;25.70;99.90
19728;DHT22;10015;52.530;13.390;2023-06-24T08:45:44;25.70;99.90
19728;DHT22;10015;52.530;13.390;2023-06-24T08:48:12;25.90;99.90
19728;DHT22;10015;52.530;13.390;2023-06-24T08:50:43;25.80;99.90
19728;DHT22;10015;52.530;13.390;2023-06-24T08:53:12;25.60;99.90
19728;DHT22;10015;52.530;13.390;2023-06-24T08:55:44;25.50;99.90
19728;DHT22;10015;52.530;13.390;2023-06-24T08:58:11;25.50;99.90
19728;DHT22;10015;52.530;13.390;2023-06-24T09:00:37;25.60;99.90
19728;DHT22;10015;52.530;13.390;2023-06-24T09:03:03;25.70;99.90
19728;DHT22;10015;52.530;13.390;2023-06-24T09:05:29;25.90;99.90
19728;DHT22;10015;52.530;13.390;2023-06-24T09:07:55;26.10;99.90
19728;DHT22;10015;52.530;13.390;2023-06-24T09:10:37;26.20;99.90
19728;DHT22;10015;52.530;13.390;2023-06-24T09:13:05;26.20;99.90
19728;DHT22;10015;52.530;13.390;2023-06-24T09:15:32;26.30;99.90
19728;DHT22;10015;52.530;13.390;2023-06-24T09:17:59;26.30;99.90
19728;DHT22;10015;52.530;13.390;2023-06-24T09:20:29;26.30;99.90
19728;DHT22;10015;52.530;13.390;2023-06-24T09:23:00;26.40;99.90
19728;DHT22;10015;52.530;13.390;2023-06-24T09:25:27;26.30;99.90
19728;DHT22;10015;52.530;13.390;2023-06-24T09:27:53;26.10;99.90
19728;DHT22;10015;52.530;13.390;2023-06-24T09:30:25;26.10;99.90
19728;DHT22;10015;52.530;13.390;2023-06-24T09:32:52;26.00;99.90
19728;DHT22;10015;52.530;13.390;2023-06-24T09:35:21;26.10;99.90
19728;DHT22;10015;52.530;13.390;2023-06-24T09:37:55;26.20;99.90
19728;DHT22;10015;52.530;13.390;2023-06-24T09:40:22;26.40;99.90
19728;DHT22;10015;52.530;13.390;2023-06-24T09:42:58;26.50;99.90
19728;DHT22;10015;52.530;13.390;2023-06-24T09:45:37;26.50;99.90
19728;DHT22;10015;52.530;13.390;2023-06-24T09:48:04;26.50;99.90
19728;DHT22;10015;52.530;13.390;2023-06-24T09:50:30;26.40;99.90
19728;DHT22;10015;52.530;13.390;2023-06-24T09:52:57;26.40;99.90
19728;DHT22;10015;52.530;13.390;2023-06-24T09:55:24;26.60;99.90
19728;DHT22;10015;52.530;13.390;2023-06-24T09:57:51;26.70;99.90
19728;DHT22;10015;52.530;13.390;2023-06-24T10:00:19;26.70;99.90
19728;DHT22;10015;52.530;13.390;2023-06-24T10:02:47;26.70;99.90
19728;DHT22;10015;52.530;13.390;2023-06-24T10:05:14;26.50;99.90
19728;DHT22;10015;52.530;13.390;2023-06-24T10:07:40;26.50;99.90
19728;DHT22;10015;52.530;13.390;2023-06-24T10:10:07;26.50;99.90
19728;DHT22;10015;52.530;13.390;2023-06-24T10:12:37;26.40;99.90
19728;DHT22;10015;52.530;13.390;2023-06-24T10:15:04;26.40;99.90
19728;DHT22;10015;52.530;13.390;2023-06-24T10:17:32;26.40;99.90
19728;DHT22;10015;52.530;13.390;2023-06-24T10:19:58;26.40;99.90
19728;DHT22;10015;52.530;13.390;2023-06-24T10:22:30;26.50;99.90
19728;DHT22;10015;52.530;13.390;2023-06-24T10:25:00;26.70;99.90
19728;DHT22;10015;52.530;13.390;2023-06-24T10:27:26;26.60;99.90
19728;DHT22;10015;52.530;13.390;2023-06-24T10:29:54;26.60;99.90
19728;DHT22;10015;52.530;13.390;2023-06-24T10:32:23;26.50;99.90
19728;DHT22;10015;52.530;13.390;2023-06-24T10:34:56;26.50;99.90
19728;DHT22;10015;52.530;13.390;2023-06-24T10:37:24;26.50;99.90
19728;DHT22;10015;52.530;13.390;2023-06-24T10:40:00;26.50;99.90
19728;DHT22;10015;52.530;13.390;2023-06-24T10:42:40;26.70;99.90
19728;DHT22;10015;52.530;13.390;2023-06-24T10:47:36;26.80;99.90
19728;DHT22;10015;52.530;13.390;2023-06-24T10:50:03;26.80;99.90
19728;DHT22;10015;52.530;13.390;2023-06-24T10:52:29;26.80;99.90
19728;DHT22;10015;52.530;13.390;2023-06-24T10:54:57;26.60;99.90
19728;DHT22;10015;52.530;13.390;2023-06-24T10:57:25;26.50;99.90
19728;DHT22;10015;52.530;13.390;2023-06-24T10:59:56;26.60;99.90
19728;DHT22;10015;52.530;13.390;2023-06-24T11:02:24;26.70;99.90
19728;DHT22;10015;52.530;13.390;2023-06-24T11:04:51;26.80;99.90
19728;DHT22;10015;52.530;13.390;2023-06-24T11:07:22;26.70;99.90
19728;DHT22;10015;52.530;13.390;2023-06-24T11:12:23;26.80;99.90
19728;DHT22;10015;52.530;13.390;2023-06-24T11:14:49;26.60;99.90
19728;DHT22;10015;52.530;13.390;2023-06-24T11:17:15;26.50;99.90
19728;DHT22;10015;52.530;13.390;2023-06-24T11:19:41;26.60;99.90
19728;DHT22;10015;52.530;13.390;2023-06-24T11:22:09;26.70;99.90
19728;DHT22;10015;52.530;13.390;2023-06-24T11:24:35;26.60;99.90
19728;DHT22;10015;52.530;13.390;2023-06-24T11:27:03;26.50;99.90
19728;DHT22;10015;52.530;13.390;2023-06-24T11:29:29;26.50;99.90
19728;DHT22;10015;52.530;13.390;2023-06-24T11:31:56;26.50;99.90
19728;DHT22;10015;52.530;13.390;2023-06-24T11:34:22;26.60;99.90
19728;DHT22;10015;52.530;13.390;2023-06-24T11:36:48;26.70;99.90
19728;DHT22;10015;52.530;13.390;2023-06-24T11:39:21;26.60;99.90
19728;DHT22;10015;52.530;13.390;2023-06-24T11:41:48;26.50;99.90
19728;DHT22;10015;52.530;13.390;2023-06-24T11:44:14;26.50;99.90
19728;DHT22;10015;52.530;13.390;2023-06-24T11:46:40;26.60;99.90
19728;DHT22;10015;52.530;13.390;2023-06-24T11:49:07;26.50;99.90
19728;DHT22;10015;52.530;13.390;2023-06-24T11:51:36;26.50;99.90
19728;DHT22;10015;52.530;13.390;2023-06-24T11:54:03;26.50;99.90
19728;DHT22;10015;52.530;13.390;2023-06-24T11:56:34;26.60;99.90
19728;DHT22;10015;52.530;13.390;2023-06-24T11:59:01;26.70;99.90
19728;DHT22;10015;52.530;13.390;2023-06-24T12:01:35;26.70;99.90
19728;DHT22;10015;52.530;13.390;2023-06-24T12:04:14;26.80;99.90
19728;DHT22;10015;52.530;13.390;2023-06-24T12:06:41;26.80;99.90
19728;DHT22;10015;52.530;13.390;2023-06-24T12:09:10;26.90;99.90
19728;DHT22;10015;52.530;13.390;2023-06-24T12:11:37;27.00;99.90
19728;DHT22;10015;52.530;13.390;2023-06-24T12:14:05;27.00;99.90
19728;DHT22;10015;52.530;13.390;2023-06-24T12:16:31;26.90;99.90
19728;DHT22;10015;52.530;13.390;2023-06-24T12:18:56;27.00;99.90
19728;DHT22;10015;52.530;13.390;2023-06-24T12:21:22;27.00;99.90
19728;DHT22;10015;52.530;13.390;2023-06-24T12:23:48;27.00;99.90
19728;DHT22;10015;52.530;13.390;2023-06-24T12:26:14;27.00;99.90
19728;DHT22;10015;52.530;13.390;2023-06-24T12:28:40;27.00;99.90
19728;DHT22;10015;52.530;13.390;2023-06-24T12:31:06;27.00;99.90
19728;DHT22;10015;52.530;13.390;2023-06-24T12:33:32;27.00;99.90
19728;DHT22;10015;52.530;13.390;2023-06-24T12:35:59;26.90;99.90
19728;DHT22;10015;52.530;13.390;2023-06-24T12:38:25;26.80;99.90
19728;DHT22;10015;52.530;13.390;2023-06-24T12:40:50;26.70;99.90
19728;DHT22;10015;52.530;13.390;2023-06-24T12:43:17;26.60;99.90
19728;DHT22;10015;52.530;13.390;2023-06-24T12:45:43;26.60;99.90
19728;DHT22;10015;52.530;13.390;2023-06-24T12:48:12;26.70;99.90
19728;DHT22;10015;52.530;13.390;2023-06-24T12:50:39;26.60;99.90
19728;DHT22;10015;52.530;13.390;2023-06-24T12:53:05;26.70;99.90
19728;DHT22;10015;52.530;13.390;2023-06-24T12:55:31;26.80;99.90
19728;DHT22;10015;52.530;13.390;2023-06-24T12:57:57;26.90;99.90
19728;DHT22;10015;52.530;13.390;2023-06-24T13:00:24;26.90;99.90
19728;DHT22;10015;52.530;13.390;2023-06-24T13:02:50;26.90;99.90
19728;DHT22;10015;52.530;13.390;2023-06-24T13:05:17;26.80;99.90
19728;DHT22;10015;52.530;13.390;2023-06-24T13:07:43;26.80;99.90
19728;DHT22;10015;52.530;13.390;2023-06-24T13:10:10;26.80;99.90
19728;DHT22;10015;52.530;13.390;2023-06-24T13:12:36;26.90;99.90
19728;DHT22;10015;52.530;13.390;2023-06-24T13:15:04;27.00;99.90
19728;DHT22;10015;52.530;13.390;2023-06-24T13:17:31;26.80;99.90
19728;DHT22;10015;52.530;13.390;2023-06-24T13:19:57;26.80;99.90
19728;DHT22;10015;52.530;13.390;2023-06-24T13:22:23;26.90;99.90
19728;DHT22;10015;52.530;13.390;2023-06-24T13:24:49;27.00;99.90
19728;DHT22;10015;52.530;13.390;2023-06-24T13:27:16;27.10;99.90
19728;DHT22;10015;52.530;13.390;2023-06-24T13:29:42;27.20;99.90
19728;DHT22;10015;52.530;13.390;2023-06-24T13:32:09;27.10;99.90
19728;DHT22;10015;52.530;13.390;2023-06-24T13:34:35;27.10;99.90
19728;DHT22;10015;52.530;13.390;2023-06-24T13:37:01;27.00;99.90
19728;DHT22;10015;52.530;13.390;2023-06-24T13:39:27;27.00;99.90
19728;DHT22;10015;52.530;13.390;2023-06-24T13:41:53;27.00;99.90
19728;DHT22;10015;52.530;13.390;2023-06-24T13:44:19;27.00;99.90
19728;DHT22;10015;52.530;13.390;2023-06-24T13:46:45;27.00;99.90
19728;DHT22;10015;52.530;13.390;2023-06-24T13:49:11;27.10;99.90
19728;DHT22;10015;52.530;13.390;2023-06-24T13:51:37;27.00;99.90
19728;DHT22;10015;52.530;13.390;2023-06-24T13:54:03;27.00;99.90
19728;DHT22;10015;52.530;13.390;2023-06-24T13:56:29;27.10;99.90
19728;DHT22;10015;52.530;13.390;2023-06-24T13:58:55;27.20;99.90
19728;DHT22;10015;52.530;13.390;2023-06-24T14:01:22;27.20;99.90
19728;DHT22;10015;52.530;13.390;2023-06-24T14:03:49;27.20;99.90
19728;DHT22;10015;52.530;13.390;2023-06-24T14:06:17;27.30;99.90
19728;DHT22;10015;52.530;13.390;2023-06-24T14:08:43;27.30;99.90
19728;DHT22;10015;52.530;13.390;2023-06-24T14:11:09;27.20;99.90
19728;DHT22;10015;52.530;13.390;2023-06-24T14:13:35;27.20;99.90
19728;DHT22;10015;52.530;13.390;2023-06-24T14:16:03;27.20;99.90
19728;DHT22;10015;52.530;13.390;2023-06-24T14:18:29;27.10;99.90
19728;DHT22;10015;52.530;13.390;2023-06-24T14:20:59;27.10;99.90
19728;DHT22;10015;52.530;13.390;2023-06-24T14:23:25;27.10;99.90
19728;DHT22;10015;52.530;13.390;2023-06-24T14:25:52;27.00;99.90
19728;DHT22;10015;52.530;13.390;2023-06-24T14:28:18;27.00;99.90
19728;DHT22;10015;52.530;13.390;2023-06-24T14:30:44;26.90;99.90
19728;DHT22;10015;52.530;13.390;2023-06-24T14:33:12;26.90;99.90
19728;DHT22;10015;52.530;13.390;2023-06-24T14:35:38;26.80;99.90
19728;DHT22;10015;52.530;13.390;2023-06-24T14:38:04;26.70;99.90
19728;DHT22;10015;52.530;13.390;2023-06-24T14:40:31;26.70;99.90
19728;DHT22;10015;52.530;13.390;2023-06-24T14:42:57;26.70;99.90
19728;DHT22;10015;52.530;13.390;2023-06-24T14:45:23;26.70;99.90
19728;DHT22;10015;52.530;13.390;2023-06-24T14:47:49;26.80;99.90
19728;DHT22;10015;52.530;13.390;2023-06-24T14:50:16;26.90;99.90
19728;DHT22;10015;52.530;13.390;2023-06-24T14:52:41;27.00;99.90
19728;DHT22;10015;52.530;13.390;2023-06-24T14:55:08;27.00;99.90
19728;DHT22;10015;52.530;13.390;2023-06-24T14:57:35;27.00;99.90
19728;DHT22;10015;52.530;13.390;2023-06-24T15:00:01;27.10;99.90
19728;DHT22;10015;52.530;13.390;2023-06-24T15:02:28;27.20;99.90
19728;DHT22;10015;52.530;13.390;2023-06-24T15:04:57;27.20;99.90
19728;DHT22;10015;52.530;13.390;2023-06-24T15:07:24;27.30;99.90
19728;DHT22;10015;52.530;13.390;2023-06-24T15:09:50;27.30;99.90
19728;DHT22;10015;52.530;13.390;2023-06-24T15:12:15;27.30;99.90
19728;DHT22;10015;52.530;13.390;2023-06-24T15:14:41;27.30;99.90
19728;DHT22;10015;52.530;13.390;2023-06-24T15:17:10;27.30;99.90
19728;DHT22;10015;52.530;13.390;2023-06-24T15:19:36;27.30;99.90
19728;DHT22;10015;52.530;13.390;2023-06-24T15:22:02;27.40;99.90
19728;DHT22;10015;52.530;13.390;2023-06-24T15:24:28;27.30;99.90
19728;DHT22;10015;52.530;13.390;2023-06-24T15:26:56;27.40;99.90
19728;DHT22;10015;52.530;13.390;2023-06-24T15:29:22;27.40;99.90
19728;DHT22;10015;52.530;13.390;2023-06-24T15:31:48;27.50;99.90
19728;DHT22;10015;52.530;13.390;2023-06-24T15:34:13;27.50;99.90